sensor_id;sensor_type;location;lat;lon;timestamp;pressure;altitude;pressure_sealevel;temperature;humidity
46392;BME280;32098;49.448;7.904;2022-12-29T00:01:45;97535.72;;;7.43;88.82
46392;BME280;32098;49.448;7.904;2022-12-29T00:04:13;97529.25;;;7.39;89.59
46392;BME280;32098;49.448;7.904;2022-12-29T00:06:42;97537.00;;;7.41;89.60
46392;BME280;32098;49.448;7.904;2022-12-29T00:09:11;97517.66;;;7.22;90.11
46392;BME280;32098;49.448;7.904;2022-12-29T00:11:39;97517.03;;;7.20;90.78
46392;BME280;32098;49.448;7.904;2022-12-29T00:14:06;97522.97;;;7.22;91.75
46392;BME280;32098;49.448;7.904;2022-12-29T00:16:52;97519.06;;;7.24;91.54
46392;BME280;32098;49.448;7.904;2022-12-29T00:19:19;97524.44;;;7.18;91.78
46392;BME280;32098;49.448;7.904;2022-12-29T00:22:05;97534.84;;;7.19;91.85
46392;BME280;32098;49.448;7.904;2022-12-29T00:24:50;97515.13;;;7.27;91.88
46392;BME280;32098;49.448;7.904;2022-12-29T00:27:19;97529.44;;;7.26;92.27
46392;BME280;32098;49.448;7.904;2022-12-29T00:30:10;97485.66;;;6.99;92.56
46392;BME280;32098;49.448;7.904;2022-12-29T00:32:55;97512.41;;;7.15;92.79
46392;BME280;32098;49.448;7.904;2022-12-29T00:35:51;97511.28;;;7.05;93.21
46392;BME280;32098;49.448;7.904;2022-12-29T00:38:19;97521.84;;;7.11;93.38
46392;BME280;32098;49.448;7.904;2022-12-29T00:41:06;97503.56;;;7.03;93.16
46392;BME280;32098;49.448;7.904;2022-12-29T00:43:51;97517.38;;;7.12;93.23
46392;BME280;32098;49.448;7.904;2022-12-29T00:46:34;97525.97;;;7.07;93.53
46392;BME280;32098;49.448;7.904;2022-12-29T00:49:02;97517.56;;;7.10;93.31
46392;BME280;32098;49.448;7.904;2022-12-29T00:51:47;97486.00;;;7.02;93.66
46392;BME280;32098;49.448;7.904;2022-12-29T00:54:15;97490.34;;;7.15;93.75
46392;BME280;32098;49.448;7.904;2022-12-29T00:56:45;97511.44;;;7.28;93.33
46392;BME280;32098;49.448;7.904;2022-12-29T00:59:13;97504.97;;;7.24;93.37
46392;BME280;32098;49.448;7.904;2022-12-29T01:01:39;97504.69;;;7.14;93.18
46392;BME280;32098;49.448;7.904;2022-12-29T01:04:07;97487.38;;;7.23;92.90
46392;BME280;32098;49.448;7.904;2022-12-29T01:06:35;97487.53;;;7.28;92.98
46392;BME280;32098;49.448;7.904;2022-12-29T01:09:03;97488.56;;;7.27;93.09
46392;BME280;32098;49.448;7.904;2022-12-29T01:11:49;97503.25;;;7.29;92.41
46392;BME280;32098;49.448;7.904;2022-12-29T01:14:16;97494.34;;;7.36;91.62
46392;BME280;32098;49.448;7.904;2022-12-29T01:16:43;97500.13;;;7.32;91.65
46392;BME280;32098;49.448;7.904;2022-12-29T01:19:10;97481.63;;;7.26;91.79
46392;BME280;32098;49.448;7.904;2022-12-29T01:21:36;97493.78;;;7.34;91.57
46392;BME280;32098;49.448;7.904;2022-12-29T01:24:03;97479.00;;;7.38;90.45
46392;BME280;32098;49.448;7.904;2022-12-29T01:26:30;97486.66;;;7.57;90.17
46392;BME280;32098;49.448;7.904;2022-12-29T01:28:56;97486.06;;;7.44;90.06
46392;BME280;32098;49.448;7.904;2022-12-29T01:31:23;97482.38;;;7.45;89.94
46392;BME280;32098;49.448;7.904;2022-12-29T01:33:49;97465.97;;;7.48;89.46
46392;BME280;32098;49.448;7.904;2022-12-29T01:36:18;97489.81;;;7.54;89.25
46392;BME280;32098;49.448;7.904;2022-12-29T01:38:45;97479.50;;;7.46;89.50
46392;BME280;32098;49.448;7.904;2022-12-29T01:41:14;97465.03;;;7.42;89.06
46392;BME280;32098;49.448;7.904;2022-12-29T01:43:50;97478.44;;;7.47;89.52
46392;BME280;32098;49.448;7.904;2022-12-29T01:46:40;97485.75;;;7.52;89.68
46392;BME280;32098;49.448;7.904;2022-12-29T01:52:01;97483.03;;;7.40;90.49
46392;BME280;32098;49.448;7.904;2022-12-29T01:54:35;97483.63;;;7.42;89.89
46392;BME280;32098;49.448;7.904;2022-12-29T01:57:05;97490.44;;;7.38;90.17
46392;BME280;32098;49.448;7.904;2022-12-29T01:59:38;97494.25;;;7.42;90.14
46392;BME280;32098;49.448;7.904;2022-12-29T02:02:09;97495.50;;;7.28;91.07
46392;BME280;32098;49.448;7.904;2022-12-29T02:04:40;97486.06;;;7.32;90.91
46392;BME280;32098;49.448;7.904;2022-12-29T02:07:16;97487.22;;;7.48;91.21
46392;BME280;32098;49.448;7.904;2022-12-29T02:09:47;97477.53;;;7.42;91.29
46392;BME280;32098;49.448;7.904;2022-12-29T02:12:16;97483.09;;;7.52;90.21
46392;BME280;32098;49.448;7.904;2022-12-29T02:14:43;97442.19;;;7.41;89.72
46392;BME280;32098;49.448;7.904;2022-12-29T02:17:41;97464.59;;;7.45;89.31
46392;BME280;32098;49.448;7.904;2022-12-29T02:26:27;97454.31;;;7.49;88.35
46392;BME280;32098;49.448;7.904;2022-12-29T02:29:18;97457.91;;;7.54;87.71
46392;BME280;32098;49.448;7.904;2022-12-29T02:31:57;97459.06;;;7.47;87.83
46392;BME280;32098;49.448;7.904;2022-12-29T02:34:50;97446.81;;;7.57;87.70
46392;BME280;32098;49.448;7.904;2022-12-29T02:41:08;97435.38;;;7.45;86.91
46392;BME280;32098;49.448;7.904;2022-12-29T02:43:54;97440.72;;;7.57;86.10
46392;BME280;32098;49.448;7.904;2022-12-29T02:46:36;97456.16;;;7.60;85.38
46392;BME280;32098;49.448;7.904;2022-12-29T02:51:43;97431.22;;;7.61;84.57
46392;BME280;32098;49.448;7.904;2022-12-29T02:54:10;97436.91;;;7.64;83.79
46392;BME280;32098;49.448;7.904;2022-12-29T02:56:55;97414.13;;;7.68;84.01
46392;BME280;32098;49.448;7.904;2022-12-29T02:59:22;97435.50;;;7.73;83.05
46392;BME280;32098;49.448;7.904;2022-12-29T03:10:48;97428.56;;;7.95;80.77
46392;BME280;32098;49.448;7.904;2022-12-29T03:13:47;97423.97;;;7.79;80.40
46392;BME280;32098;49.448;7.904;2022-12-29T03:16:44;97421.53;;;7.78;80.27
46392;BME280;32098;49.448;7.904;2022-12-29T03:19:21;97402.44;;;7.92;80.40
46392;BME280;32098;49.448;7.904;2022-12-29T03:25:18;97397.75;;;7.94;79.09
46392;BME280;32098;49.448;7.904;2022-12-29T03:27:50;97377.63;;;7.87;78.97
46392;BME280;32098;49.448;7.904;2022-12-29T03:30:19;97390.91;;;7.87;79.33
46392;BME280;32098;49.448;7.904;2022-12-29T03:32:57;97394.03;;;7.84;78.64
46392;BME280;32098;49.448;7.904;2022-12-29T03:35:31;97381.44;;;7.79;78.49
46392;BME280;32098;49.448;7.904;2022-12-29T03:38:08;97387.91;;;7.83;78.13
46392;BME280;32098;49.448;7.904;2022-12-29T03:40:38;97391.03;;;7.92;77.78
46392;BME280;32098;49.448;7.904;2022-12-29T03:43:06;97367.31;;;7.90;77.78
46392;BME280;32098;49.448;7.904;2022-12-29T03:45:35;97393.09;;;8.02;77.54
46392;BME280;32098;49.448;7.904;2022-12-29T03:48:01;97352.78;;;7.81;77.59
46392;BME280;32098;49.448;7.904;2022-12-29T03:50:29;97388.81;;;8.01;77.58
46392;BME280;32098;49.448;7.904;2022-12-29T03:52:57;97363.06;;;7.89;77.22
46392;BME280;32098;49.448;7.904;2022-12-29T03:55:25;97370.34;;;7.94;77.13
46392;BME280;32098;49.448;7.904;2022-12-29T03:57:52;97402.56;;;7.98;77.45
46392;BME280;32098;49.448;7.904;2022-12-29T04:00:29;97375.88;;;7.92;78.29
46392;BME280;32098;49.448;7.904;2022-12-29T04:02:55;97370.91;;;7.96;78.97
46392;BME280;32098;49.448;7.904;2022-12-29T04:05:22;97377.72;;;7.80;79.72
46392;BME280;32098;49.448;7.904;2022-12-29T04:07:52;97390.09;;;7.86;80.19
46392;BME280;32098;49.448;7.904;2022-12-29T04:10:19;97369.31;;;7.83;80.99
46392;BME280;32098;49.448;7.904;2022-12-29T04:12:47;97364.44;;;7.80;80.66
46392;BME280;32098;49.448;7.904;2022-12-29T04:15:14;97380.63;;;7.90;80.12
46392;BME280;32098;49.448;7.904;2022-12-29T04:17:41;97362.59;;;7.81;79.57
46392;BME280;32098;49.448;7.904;2022-12-29T04:20:08;97378.31;;;7.82;79.69
46392;BME280;32098;49.448;7.904;2022-12-29T04:23:00;97372.63;;;7.90;78.64
46392;BME280;32098;49.448;7.904;2022-12-29T04:25:27;97368.13;;;7.91;78.93
46392;BME280;32098;49.448;7.904;2022-12-29T04:27:53;97350.91;;;7.93;78.24
46392;BME280;32098;49.448;7.904;2022-12-29T04:30:52;97381.41;;;8.03;77.79
46392;BME280;32098;49.448;7.904;2022-12-29T04:33:22;97362.13;;;8.07;77.26
46392;BME280;32098;49.448;7.904;2022-12-29T04:35:49;97374.69;;;8.12;77.07
46392;BME280;32098;49.448;7.904;2022-12-29T04:38:16;97370.31;;;8.06;76.97
46392;BME280;32098;49.448;7.904;2022-12-29T04:40:44;97370.97;;;8.13;77.01
46392;BME280;32098;49.448;7.904;2022-12-29T04:43:13;97364.78;;;8.07;76.67
46392;BME280;32098;49.448;7.904;2022-12-29T04:46:09;97349.50;;;8.03;76.71
46392;BME280;32098;49.448;7.904;2022-12-29T04:48:59;97371.66;;;8.20;76.41
46392;BME280;32098;49.448;7.904;2022-12-29T04:51:45;97376.19;;;8.19;76.11
46392;BME280;32098;49.448;7.904;2022-12-29T04:54:13;97364.28;;;8.22;75.84
46392;BME280;32098;49.448;7.904;2022-12-29T04:56:42;97370.38;;;8.22;75.47
46392;BME280;32098;49.448;7.904;2022-12-29T04:59:11;97372.25;;;8.22;75.40
46392;BME280;32098;49.448;7.904;2022-12-29T05:01:37;97357.69;;;8.24;75.44
46392;BME280;32098;49.448;7.904;2022-12-29T05:04:04;97358.84;;;8.17;75.95
46392;BME280;32098;49.448;7.904;2022-12-29T05:06:32;97380.22;;;8.22;75.49
46392;BME280;32098;49.448;7.904;2022-12-29T05:09:00;97374.88;;;8.33;74.95
46392;BME280;32098;49.448;7.904;2022-12-29T05:11:27;97378.13;;;8.24;74.54
46392;BME280;32098;49.448;7.904;2022-12-29T05:13:54;97363.97;;;8.35;74.83
46392;BME280;32098;49.448;7.904;2022-12-29T05:16:20;97382.84;;;8.33;74.31
46392;BME280;32098;49.448;7.904;2022-12-29T05:18:47;97363.31;;;8.28;74.73
46392;BME280;32098;49.448;7.904;2022-12-29T05:21:13;97355.44;;;8.33;74.14
46392;BME280;32098;49.448;7.904;2022-12-29T05:23:41;97362.84;;;8.31;73.78
46392;BME280;32098;49.448;7.904;2022-12-29T05:26:08;97379.47;;;8.38;74.09
46392;BME280;32098;49.448;7.904;2022-12-29T05:29:09;97366.75;;;8.40;73.81
46392;BME280;32098;49.448;7.904;2022-12-29T05:31:36;97362.94;;;8.36;73.54
46392;BME280;32098;49.448;7.904;2022-12-29T05:34:04;97382.03;;;8.44;73.45
46392;BME280;32098;49.448;7.904;2022-12-29T05:36:31;97363.06;;;8.41;73.73
46392;BME280;32098;49.448;7.904;2022-12-29T05:39:05;97373.50;;;8.31;74.44
46392;BME280;32098;49.448;7.904;2022-12-29T05:41:34;97367.72;;;8.34;75.16
46392;BME280;32098;49.448;7.904;2022-12-29T05:44:21;97370.63;;;8.21;77.31
46392;BME280;32098;49.448;7.904;2022-12-29T05:46:53;97365.66;;;8.13;77.97
46392;BME280;32098;49.448;7.904;2022-12-29T05:49:40;97379.31;;;8.16;77.50
46392;BME280;32098;49.448;7.904;2022-12-29T05:52:08;97363.94;;;8.18;77.09
46392;BME280;32098;49.448;7.904;2022-12-29T05:54:35;97365.78;;;8.18;76.43
46392;BME280;32098;49.448;7.904;2022-12-29T05:57:07;97355.59;;;8.26;76.01
46392;BME280;32098;49.448;7.904;2022-12-29T05:59:35;97347.16;;;8.18;74.16
46392;BME280;32098;49.448;7.904;2022-12-29T06:02:03;97349.78;;;8.29;74.21
46392;BME280;32098;49.448;7.904;2022-12-29T06:04:30;97349.78;;;8.29;73.39
46392;BME280;32098;49.448;7.904;2022-12-29T06:06:57;97338.19;;;8.35;72.93
46392;BME280;32098;49.448;7.904;2022-12-29T06:09:33;97338.00;;;8.25;72.06
46392;BME280;32098;49.448;7.904;2022-12-29T06:12:01;97348.03;;;8.35;72.06
46392;BME280;32098;49.448;7.904;2022-12-29T06:14:28;97325.16;;;8.34;71.67
46392;BME280;32098;49.448;7.904;2022-12-29T06:16:54;97340.13;;;8.51;71.17
46392;BME280;32098;49.448;7.904;2022-12-29T06:19:21;97328.09;;;8.49;70.84
46392;BME280;32098;49.448;7.904;2022-12-29T06:21:48;97338.38;;;8.45;70.98
46392;BME280;32098;49.448;7.904;2022-12-29T06:24:14;97332.94;;;8.52;70.89
46392;BME280;32098;49.448;7.904;2022-12-29T06:26:40;97300.34;;;8.45;70.89
46392;BME280;32098;49.448;7.904;2022-12-29T06:29:08;97334.53;;;8.53;70.21
46392;BME280;32098;49.448;7.904;2022-12-29T06:31:35;97325.53;;;8.54;69.96
46392;BME280;32098;49.448;7.904;2022-12-29T06:34:01;97308.59;;;8.60;69.51
46392;BME280;32098;49.448;7.904;2022-12-29T06:36:35;97316.66;;;8.65;69.35
46392;BME280;32098;49.448;7.904;2022-12-29T06:39:01;97313.91;;;8.72;68.79
46392;BME280;32098;49.448;7.904;2022-12-29T06:41:28;97318.16;;;8.73;68.86
46392;BME280;32098;49.448;7.904;2022-12-29T06:44:13;97300.28;;;8.85;68.48
46392;BME280;32098;49.448;7.904;2022-12-29T06:46:51;97336.28;;;8.87;68.03
46392;BME280;32098;49.448;7.904;2022-12-29T06:49:18;97318.34;;;8.83;67.86
46392;BME280;32098;49.448;7.904;2022-12-29T06:51:45;97327.94;;;8.84;67.94
46392;BME280;32098;49.448;7.904;2022-12-29T06:54:12;97330.13;;;8.87;67.67
46392;BME280;32098;49.448;7.904;2022-12-29T06:56:39;97322.38;;;8.85;67.50
46392;BME280;32098;49.448;7.904;2022-12-29T06:59:06;97336.28;;;8.87;67.47
46392;BME280;32098;49.448;7.904;2022-12-29T07:01:32;97334.19;;;8.89;68.04
46392;BME280;32098;49.448;7.904;2022-12-29T07:03:59;97352.91;;;8.94;68.69
46392;BME280;32098;49.448;7.904;2022-12-29T07:06:25;97357.41;;;8.94;68.36
46392;BME280;32098;49.448;7.904;2022-12-29T07:08:52;97340.44;;;8.83;68.21
46392;BME280;32098;49.448;7.904;2022-12-29T07:11:21;97346.84;;;8.82;68.24
46392;BME280;32098;49.448;7.904;2022-12-29T07:13:47;97350.97;;;8.90;67.75
46392;BME280;32098;49.448;7.904;2022-12-29T07:16:14;97352.34;;;8.92;67.83
46392;BME280;32098;49.448;7.904;2022-12-29T07:18:40;97356.50;;;8.88;67.58
46392;BME280;32098;49.448;7.904;2022-12-29T07:21:07;97357.66;;;8.92;68.11
46392;BME280;32098;49.448;7.904;2022-12-29T07:23:33;97361.38;;;8.91;68.06
46392;BME280;32098;49.448;7.904;2022-12-29T07:26:07;97360.00;;;8.89;68.40
46392;BME280;32098;49.448;7.904;2022-12-29T07:28:35;97369.09;;;8.93;68.16
46392;BME280;32098;49.448;7.904;2022-12-29T07:31:02;97380.91;;;8.97;67.81
46392;BME280;32098;49.448;7.904;2022-12-29T07:33:29;97370.63;;;8.89;67.92
46392;BME280;32098;49.448;7.904;2022-12-29T07:35:56;97370.25;;;8.97;67.66
46392;BME280;32098;49.448;7.904;2022-12-29T07:38:22;97366.44;;;8.93;67.84
46392;BME280;32098;49.448;7.904;2022-12-29T07:40:49;97375.16;;;9.05;68.26
46392;BME280;32098;49.448;7.904;2022-12-29T07:43:15;97370.69;;;9.22;67.99
46392;BME280;32098;49.448;7.904;2022-12-29T07:45:55;97390.53;;;9.14;67.29
46392;BME280;32098;49.448;7.904;2022-12-29T07:48:22;97389.00;;;9.18;66.92
46392;BME280;32098;49.448;7.904;2022-12-29T07:50:49;97396.25;;;9.23;67.44
46392;BME280;32098;49.448;7.904;2022-12-29T07:53:15;97383.19;;;9.21;67.71
46392;BME280;32098;49.448;7.904;2022-12-29T07:55:42;97394.75;;;9.27;68.20
46392;BME280;32098;49.448;7.904;2022-12-29T07:58:08;97383.09;;;9.16;68.60
46392;BME280;32098;49.448;7.904;2022-12-29T08:00:35;97355.22;;;9.07;68.69
46392;BME280;32098;49.448;7.904;2022-12-29T08:03:02;97399.09;;;9.33;68.37
46392;BME280;32098;49.448;7.904;2022-12-29T08:05:30;97422.69;;;9.41;67.78
46392;BME280;32098;49.448;7.904;2022-12-29T08:07:57;97393.13;;;9.09;69.41
46392;BME280;32098;49.448;7.904;2022-12-29T08:10:24;97409.38;;;8.96;70.00
46392;BME280;32098;49.448;7.904;2022-12-29T08:12:51;97399.19;;;8.93;70.60
46392;BME280;32098;49.448;7.904;2022-12-29T08:15:17;97382.84;;;8.73;71.22
46392;BME280;32098;49.448;7.904;2022-12-29T08:17:44;97410.19;;;8.97;70.69
46392;BME280;32098;49.448;7.904;2022-12-29T08:20:10;97411.97;;;9.08;70.28
46392;BME280;32098;49.448;7.904;2022-12-29T08:22:37;97399.28;;;8.98;70.33
46392;BME280;32098;49.448;7.904;2022-12-29T08:25:04;97400.97;;;8.88;70.67
46392;BME280;32098;49.448;7.904;2022-12-29T08:27:30;97408.19;;;9.04;70.33
46392;BME280;32098;49.448;7.904;2022-12-29T08:29:57;97429.41;;;8.99;70.30
46392;BME280;32098;49.448;7.904;2022-12-29T08:32:23;97426.50;;;9.00;70.32
46392;BME280;32098;49.448;7.904;2022-12-29T08:34:50;97422.44;;;8.98;70.96
46392;BME280;32098;49.448;7.904;2022-12-29T08:37:16;97449.41;;;9.01;71.18
46392;BME280;32098;49.448;7.904;2022-12-29T08:39:43;97434.53;;;8.89;72.80
46392;BME280;32098;49.448;7.904;2022-12-29T08:42:09;97453.91;;;8.73;75.29
46392;BME280;32098;49.448;7.904;2022-12-29T08:44:36;97451.38;;;8.66;76.80
46392;BME280;32098;49.448;7.904;2022-12-29T08:47:02;97438.41;;;8.58;77.55
46392;BME280;32098;49.448;7.904;2022-12-29T08:49:29;97438.41;;;8.58;77.44
46392;BME280;32098;49.448;7.904;2022-12-29T08:51:55;97448.59;;;8.61;76.75
46392;BME280;32098;49.448;7.904;2022-12-29T08:54:22;97430.81;;;8.50;77.27
46392;BME280;32098;49.448;7.904;2022-12-29T08:56:49;97442.00;;;8.64;77.01
46392;BME280;32098;49.448;7.904;2022-12-29T08:59:16;97432.31;;;8.69;76.34
46392;BME280;32098;49.448;7.904;2022-12-29T09:01:46;97434.84;;;8.64;76.46
46392;BME280;32098;49.448;7.904;2022-12-29T09:04:12;97428.69;;;8.64;75.89
46392;BME280;32098;49.448;7.904;2022-12-29T09:06:43;97459.72;;;8.58;76.04
46392;BME280;32098;49.448;7.904;2022-12-29T09:09:10;97455.66;;;8.55;75.33
46392;BME280;32098;49.448;7.904;2022-12-29T09:11:37;97465.13;;;8.63;76.18
46392;BME280;32098;49.448;7.904;2022-12-29T09:14:04;97453.47;;;8.52;76.10
46392;BME280;32098;49.448;7.904;2022-12-29T09:16:32;97462.50;;;8.51;76.09
46392;BME280;32098;49.448;7.904;2022-12-29T09:18:59;97460.06;;;8.50;75.72
46392;BME280;32098;49.448;7.904;2022-12-29T09:21:26;97459.72;;;8.58;76.19
46392;BME280;32098;49.448;7.904;2022-12-29T09:23:53;97475.47;;;8.48;77.55
46392;BME280;32098;49.448;7.904;2022-12-29T09:26:19;97470.28;;;8.41;77.80
46392;BME280;32098;49.448;7.904;2022-12-29T09:28:46;97468.53;;;8.35;78.06
46392;BME280;32098;49.448;7.904;2022-12-29T09:31:13;97482.53;;;8.54;77.50
46392;BME280;32098;49.448;7.904;2022-12-29T09:33:39;97485.50;;;8.57;77.17
46392;BME280;32098;49.448;7.904;2022-12-29T09:36:06;97487.94;;;8.59;76.65
46392;BME280;32098;49.448;7.904;2022-12-29T09:38:34;97494.19;;;8.53;76.37
46392;BME280;32098;49.448;7.904;2022-12-29T09:41:20;97481.34;;;8.73;76.06
46392;BME280;32098;49.448;7.904;2022-12-29T09:44:01;97487.00;;;8.65;76.07
46392;BME280;32098;49.448;7.904;2022-12-29T09:46:38;97484.34;;;8.65;76.25
46392;BME280;32098;49.448;7.904;2022-12-29T09:49:15;97490.25;;;8.55;76.85
46392;BME280;32098;49.448;7.904;2022-12-29T09:51:46;97471.78;;;8.49;77.00
46392;BME280;32098;49.448;7.904;2022-12-29T09:56:58;97491.44;;;8.71;76.07
46392;BME280;32098;49.448;7.904;2022-12-29T09:59:36;97485.53;;;8.69;76.19
46392;BME280;32098;49.448;7.904;2022-12-29T10:02:14;97472.66;;;8.66;76.21
46392;BME280;32098;49.448;7.904;2022-12-29T10:04:41;97481.81;;;8.70;76.03
46392;BME280;32098;49.448;7.904;2022-12-29T10:07:23;97478.25;;;9.04;74.84
46392;BME280;32098;49.448;7.904;2022-12-29T10:10:29;97474.63;;;9.10;74.43
46392;BME280;32098;49.448;7.904;2022-12-29T10:13:04;97464.97;;;9.21;74.24
46392;BME280;32098;49.448;7.904;2022-12-29T10:15:47;97464.50;;;9.24;73.40
46392;BME280;32098;49.448;7.904;2022-12-29T10:24:04;97466.94;;;9.75;70.94
46392;BME280;32098;49.448;7.904;2022-12-29T10:26:38;97476.25;;;9.73;70.19
46392;BME280;32098;49.448;7.904;2022-12-29T10:29:13;97474.53;;;9.50;70.37
46392;BME280;32098;49.448;7.904;2022-12-29T10:32:06;97481.31;;;9.41;70.93
46392;BME280;32098;49.448;7.904;2022-12-29T10:34:43;97488.47;;;9.24;70.67
46392;BME280;32098;49.448;7.904;2022-12-29T10:39:49;97478.34;;;9.09;71.20
46392;BME280;32098;49.448;7.904;2022-12-29T10:42:26;97510.88;;;9.11;72.40
46392;BME280;32098;49.448;7.904;2022-12-29T10:44:57;97480.38;;;8.91;72.85
46392;BME280;32098;49.448;7.904;2022-12-29T10:47:33;97518.09;;;8.99;74.22
46392;BME280;32098;49.448;7.904;2022-12-29T10:50:02;97499.97;;;8.85;75.17
46392;BME280;32098;49.448;7.904;2022-12-29T10:52:29;97499.28;;;8.66;76.27
46392;BME280;32098;49.448;7.904;2022-12-29T10:55:00;97510.31;;;8.70;75.53
46392;BME280;32098;49.448;7.904;2022-12-29T10:57:38;97503.47;;;8.62;76.35
46392;BME280;32098;49.448;7.904;2022-12-29T11:00:11;97519.66;;;8.49;75.69
46392;BME280;32098;49.448;7.904;2022-12-29T11:03:01;97518.50;;;8.45;75.90
46392;BME280;32098;49.448;7.904;2022-12-29T11:05:59;97521.53;;;8.37;77.67
46392;BME280;32098;49.448;7.904;2022-12-29T11:08:30;97520.81;;;8.30;78.07
46392;BME280;32098;49.448;7.904;2022-12-29T11:11:08;97517.81;;;8.38;77.97
46392;BME280;32098;49.448;7.904;2022-12-29T11:13:47;97525.13;;;8.31;78.11
46392;BME280;32098;49.448;7.904;2022-12-29T11:16:14;97525.44;;;8.46;79.10
46392;BME280;32098;49.448;7.904;2022-12-29T11:18:40;97523.94;;;8.62;78.89
46392;BME280;32098;49.448;7.904;2022-12-29T11:24:01;97520.13;;;8.69;79.33
46392;BME280;32098;49.448;7.904;2022-12-29T11:26:29;97522.19;;;8.67;78.92
46392;BME280;32098;49.448;7.904;2022-12-29T11:34:08;97526.66;;;9.01;77.84
46392;BME280;32098;49.448;7.904;2022-12-29T11:36:41;97533.00;;;9.00;76.63
46392;BME280;32098;49.448;7.904;2022-12-29T11:39:30;97532.13;;;8.83;75.88
46392;BME280;32098;49.448;7.904;2022-12-29T11:41:58;97520.56;;;8.89;74.65
46392;BME280;32098;49.448;7.904;2022-12-29T11:44:26;97508.75;;;8.85;74.11
46392;BME280;32098;49.448;7.904;2022-12-29T11:46:53;97521.78;;;8.98;73.18
46392;BME280;32098;49.448;7.904;2022-12-29T11:49:23;97528.84;;;9.04;73.38
46392;BME280;32098;49.448;7.904;2022-12-29T11:51:51;97524.47;;;9.27;73.22
46392;BME280;32098;49.448;7.904;2022-12-29T11:54:30;97517.97;;;9.34;72.68
46392;BME280;32098;49.448;7.904;2022-12-29T11:57:14;97519.34;;;9.37;72.36
46392;BME280;32098;49.448;7.904;2022-12-29T11:59:48;97523.59;;;9.38;71.99
46392;BME280;32098;49.448;7.904;2022-12-29T12:02:31;97514.19;;;9.47;71.95
46392;BME280;32098;49.448;7.904;2022-12-29T12:05:13;97520.91;;;9.49;70.99
46392;BME280;32098;49.448;7.904;2022-12-29T12:07:43;97517.59;;;9.59;71.22
46392;BME280;32098;49.448;7.904;2022-12-29T12:10:21;97519.16;;;9.55;70.68
46392;BME280;32098;49.448;7.904;2022-12-29T12:12:58;97513.63;;;9.45;71.03
46392;BME280;32098;49.448;7.904;2022-12-29T12:15:34;97515.13;;;9.41;71.28
46392;BME280;32098;49.448;7.904;2022-12-29T12:18:20;97519.97;;;9.27;71.61
46392;BME280;32098;49.448;7.904;2022-12-29T12:20:58;97519.78;;;9.05;72.03
46392;BME280;32098;49.448;7.904;2022-12-29T12:26:09;97514.09;;;9.13;71.27
46392;BME280;32098;49.448;7.904;2022-12-29T12:28:45;97515.22;;;9.17;71.96
46392;BME280;32098;49.448;7.904;2022-12-29T12:33:59;97506.81;;;9.09;72.67
46392;BME280;32098;49.448;7.904;2022-12-29T12:42:48;97491.72;;;8.86;74.52
46392;BME280;32098;49.448;7.904;2022-12-29T12:48:39;97503.00;;;8.77;74.01
46392;BME280;32098;49.448;7.904;2022-12-29T12:51:36;97493.13;;;8.66;74.05
46392;BME280;32098;49.448;7.904;2022-12-29T12:54:18;97498.84;;;8.69;73.48
46392;BME280;32098;49.448;7.904;2022-12-29T12:57:31;97505.19;;;8.68;73.34
46392;BME280;32098;49.448;7.904;2022-12-29T12:59:49;97498.72;;;8.52;73.03
46392;BME280;32098;49.448;7.904;2022-12-29T13:10:42;97491.91;;;8.45;71.38
46392;BME280;32098;49.448;7.904;2022-12-29T13:16:29;97484.88;;;8.39;71.23
46392;BME280;32098;49.448;7.904;2022-12-29T13:19:11;97491.31;;;8.43;70.45
46392;BME280;32098;49.448;7.904;2022-12-29T13:25:15;97488.19;;;8.46;70.24
46392;BME280;32098;49.448;7.904;2022-12-29T13:28:01;97490.41;;;8.49;70.47
46392;BME280;32098;49.448;7.904;2022-12-29T13:31:00;97505.91;;;8.52;69.78
46392;BME280;32098;49.448;7.904;2022-12-29T13:34:00;97501.00;;;8.60;69.87
46392;BME280;32098;49.448;7.904;2022-12-29T13:36:47;97500.81;;;8.62;69.34
46392;BME280;32098;49.448;7.904;2022-12-29T13:39:19;97501.38;;;8.64;69.06
46392;BME280;32098;49.448;7.904;2022-12-29T13:41:51;97518.03;;;8.59;69.02
46392;BME280;32098;49.448;7.904;2022-12-29T13:44:25;97508.06;;;8.55;69.24
46392;BME280;32098;49.448;7.904;2022-12-29T13:47:36;97528.22;;;8.51;69.99
46392;BME280;32098;49.448;7.904;2022-12-29T13:50:08;97525.34;;;8.41;70.97
46392;BME280;32098;49.448;7.904;2022-12-29T13:52:45;97529.03;;;8.40;71.81
46392;BME280;32098;49.448;7.904;2022-12-29T14:00:52;97533.44;;;8.11;75.09
46392;BME280;32098;49.448;7.904;2022-12-29T14:03:48;97546.41;;;8.19;76.00
46392;BME280;32098;49.448;7.904;2022-12-29T14:08:47;97546.28;;;8.14;76.66
46392;BME280;32098;49.448;7.904;2022-12-29T14:11:16;97536.91;;;8.23;76.44
46392;BME280;32098;49.448;7.904;2022-12-29T14:13:46;97533.31;;;8.18;76.70
46392;BME280;32098;49.448;7.904;2022-12-29T14:16:31;97545.59;;;8.19;76.95
46392;BME280;32098;49.448;7.904;2022-12-29T14:19:11;97529.63;;;8.19;77.11
46392;BME280;32098;49.448;7.904;2022-12-29T14:21:39;97543.25;;;8.11;77.28
46392;BME280;32098;49.448;7.904;2022-12-29T14:34:48;97562.44;;;8.13;77.95
46392;BME280;32098;49.448;7.904;2022-12-29T14:37:25;97562.69;;;8.00;78.37
46392;BME280;32098;49.448;7.904;2022-12-29T14:40:25;97562.88;;;7.86;78.02
46392;BME280;32098;49.448;7.904;2022-12-29T14:42:54;97558.38;;;7.87;78.57
46392;BME280;32098;49.448;7.904;2022-12-29T14:45:28;97563.91;;;7.85;78.24
46392;BME280;32098;49.448;7.904;2022-12-29T14:47:56;97549.22;;;7.71;78.33
46392;BME280;32098;49.448;7.904;2022-12-29T14:50:25;97554.78;;;7.81;77.79
46392;BME280;32098;49.448;7.904;2022-12-29T14:52:58;97551.06;;;7.82;77.57
46392;BME280;32098;49.448;7.904;2022-12-29T14:55:44;97545.28;;;7.74;76.52
46392;BME280;32098;49.448;7.904;2022-12-29T15:00:50;97553.97;;;7.69;75.17
46392;BME280;32098;49.448;7.904;2022-12-29T15:03:30;97563.84;;;7.62;75.65
46392;BME280;32098;49.448;7.904;2022-12-29T15:06:06;97568.97;;;7.75;75.57
46392;BME280;32098;49.448;7.904;2022-12-29T15:09:06;97585.25;;;7.67;75.38
46392;BME280;32098;49.448;7.904;2022-12-29T15:14:39;97584.75;;;7.59;76.63
46392;BME280;32098;49.448;7.904;2022-12-29T15:17:23;97590.63;;;7.49;76.97
46392;BME280;32098;49.448;7.904;2022-12-29T15:19:50;97591.91;;;7.58;76.98
46392;BME280;32098;49.448;7.904;2022-12-29T15:22:17;97585.72;;;7.64;76.59